Time;durP1;ratioP1;P1;durP2;ratioP2;P2;SDS_P1;SDS_P2;PMS_P1;PMS_P2;Temp;Humidity;BMP_temperature;BMP_pressure;BME280_temperature;BME280_humidity;BME280_pressure;Samples;Min_cycle;Max_cycle;Signal;HPM_P1;HPM_P2
2022/11/02 00:01:42;;;;;;;;;0.00;0.00;;;;;;;;4749042;29;28550;-94
2022/11/02 00:04:07;;;;;;;;;0.00;0.00;;;;;;;;4743368;29;28598;-93
2022/11/02 00:06:33;;;;;;;;;0.00;0.00;;;;;;;;4753685;29;28471;-93
2022/11/02 00:08:58;;;;;;;;;0.00;0.00;;;;;;;;4744750;29;42249;-93
2022/11/02 00:11:23;;;;;;;;;0.00;0.00;;;;;;;;4748681;29;28336;-92
2022/11/02 00:13:48;;;;;;;;;0.00;0.00;;;;;;;;4754404;29;28537;-94
2022/11/02 00:16:14;;;;;;;;;0.00;0.00;;;;;;;;4754503;29;38960;-93
2022/11/02 00:18:41;;;;;;;;;0.00;0.00;;;;;;;;4744529;29;28464;-93
2022/11/02 00:21:06;;;;;;;;;0.00;0.00;;;;;;;;4743565;29;44384;-93
2022/11/02 00:23:32;;;;;;;;;0.00;0.00;;;;;;;;4747935;29;28635;-93
2022/11/02 00:25:58;;;;;;;;;0.00;0.00;;;;;;;;4749485;29;41971;-94
2022/11/02 00:28:23;;;;;;;;;0.00;0.00;;;;;;;;4742162;29;44721;-93
2022/11/02 00:30:48;;;;;;;;;0.00;0.00;;;;;;;;4749167;29;27917;-94
2022/11/02 00:33:13;;;;;;;;;0.00;0.00;;;;;;;;4761043;29;27837;-95
2022/11/02 00:35:39;;;;;;;;;0.00;0.00;;;;;;;;4767215;29;26622;-95
2022/11/02 00:38:04;;;;;;;;;0.00;0.00;;;;;;;;4768712;29;25821;-93
2022/11/02 00:40:29;;;;;;;;;0.00;0.00;;;;;;;;4751196;29;29855;-94
2022/11/02 00:42:55;;;;;;;;;0.00;0.00;;;;;;;;4760704;29;44077;-94
2022/11/02 00:45:21;;;;;;;;;0.00;0.00;;;;;;;;4754995;29;40213;-94
2022/11/02 00:47:46;;;;;;;;;0.00;0.00;;;;;;;;4742027;30;28459;-93
2022/11/02 00:50:12;;;;;;;;;0.00;0.00;;;;;;;;4749955;29;30992;-94
2022/11/02 00:52:38;;;;;;;;;0.00;0.00;;;;;;;;4747340;30;29631;-93
2022/11/02 00:55:03;;;;;;;;;0.00;0.00;;;;;;;;4740322;29;28353;-93
2022/11/02 00:57:28;;;;;;;;;0.00;0.00;;;;;;;;4737897;29;28636;-94
2022/11/02 00:59:54;;;;;;;;;0.00;0.00;;;;;;;;4738523;29;40258;-92
2022/11/02 01:02:19;;;;;;;;;0.00;0.00;;;;;;;;4742963;29;37569;-94
2022/11/02 01:04:44;;;;;;;;;0.00;0.00;;;;;;;;4746971;30;30133;-93
2022/11/02 01:07:09;;;;;;;;;0.00;0.00;;;;;;;;4751153;30;42082;-93
2022/11/02 01:09:35;;;;;;;;;0.00;0.00;;;;;;;;4740544;30;30793;-94
2022/11/02 01:12:00;;;;;;;;;0.00;0.00;;;;;;;;4747006;29;42495;-93
2022/11/02 01:14:25;;;;;;;;;0.00;0.00;;;;;;;;4737910;29;44705;-94
2022/11/02 01:16:50;;;;;;;;;0.00;0.00;;;;;;;;4734138;29;45424;-93
2022/11/02 01:19:16;;;;;;;;;0.00;0.00;;;;;;;;4733607;29;47409;-94
2022/11/02 01:21:41;;;;;;;;;0.00;0.00;;;;;;;;4749123;29;28770;-95
2022/11/02 01:24:06;;;;;;;;;0.00;0.00;;;;;;;;4742635;29;28793;-95
2022/11/02 01:26:32;;;;;;;;;0.00;0.00;;;;;;;;4746387;29;28670;-93
2022/11/02 01:28:57;;;;;;;;;0.00;0.00;;;;;;;;4744361;29;30137;-92
2022/11/02 01:31:22;;;;;;;;;3.00;3.00;;;;;;;;4739659;30;28458;-92
2022/11/02 01:33:47;;;;;;;;;0.00;0.00;;;;;;;;4746247;29;28584;-94
2022/11/02 01:36:13;;;;;;;;;0.00;0.00;;;;;;;;4752004;29;28568;-93
2022/11/02 01:38:39;;;;;;;;;0.00;0.00;;;;;;;;4742002;29;30581;-93
2022/11/02 01:41:04;;;;;;;;;0.00;0.00;;;;;;;;4743127;29;27959;-93
2022/11/02 01:43:32;;;;;;;;;0.00;0.00;;;;;;;;4750775;29;44740;-92
2022/11/02 01:46:13;;;;;;;;;0.00;0.00;;;;;;;;4751762;30;28986;-92
2022/11/02 01:48:38;;;;;;;;;0.00;0.00;;;;;;;;4753236;29;28434;-93
2022/11/02 01:51:05;;;;;;;;;0.00;0.00;;;;;;;;4739710;30;29032;-93
2022/11/02 01:53:32;;;;;;;;;0.00;0.00;;;;;;;;4739877;29;28733;-92
2022/11/02 01:55:58;;;;;;;;;0.00;0.00;;;;;;;;4751691;29;28580;-93
2022/11/02 01:58:24;;;;;;;;;0.00;0.00;;;;;;;;4745444;29;30546;-93
2022/11/02 02:00:50;;;;;;;;;0.00;0.00;;;;;;;;4749638;30;28995;-93
2022/11/02 02:03:17;;;;;;;;;0.00;0.00;;;;;;;;4749502;29;28419;-92
2022/11/02 02:06:02;;;;;;;;;0.00;0.00;;;;;;;;4753086;29;28497;-93
2022/11/02 02:08:28;;;;;;;;;0.00;0.00;;;;;;;;4728286;29;39964;-93
2022/11/02 02:10:57;;;;;;;;;0.00;0.00;;;;;;;;4740877;29;28777;-93
2022/11/02 02:13:24;;;;;;;;;0.00;0.00;;;;;;;;4744240;29;27903;-94
2022/11/02 02:15:54;;;;;;;;;0.00;0.00;;;;;;;;4739409;30;29826;-93
2022/11/02 02:18:25;;;;;;;;;0.00;0.00;;;;;;;;4753091;29;38118;-95
2022/11/02 02:20:50;;;;;;;;;0.00;0.00;;;;;;;;4755892;29;28483;-94
2022/11/02 02:23:34;;;;;;;;;0.00;0.00;;;;;;;;4753475;29;27841;-93
2022/11/02 02:26:18;;;;;;;;;0.00;0.00;;;;;;;;4754629;30;43120;-93
2022/11/02 02:28:50;;;;;;;;;0.00;0.00;;;;;;;;4750405;29;44756;-94
2022/11/02 02:31:21;;;;;;;;;0.00;0.00;;;;;;;;4766188;29;39422;-93
2022/11/02 02:34:00;;;;;;;;;0.00;0.00;;;;;;;;4761042;29;33484;-93
2022/11/02 02:36:33;;;;;;;;;0.00;0.00;;;;;;;;4748978;29;28457;-93
2022/11/02 02:39:05;;;;;;;;;0.00;0.00;;;;;;;;4753812;30;45272;-94
2022/11/02 02:41:30;;;;;;;;;0.00;0.00;;;;;;;;4766405;29;43913;-93
2022/11/02 02:43:57;;;;;;;;;0.00;0.00;;;;;;;;4750794;30;45173;-93
2022/11/02 02:46:28;;;;;;;;;0.00;0.00;;;;;;;;4748401;30;27816;-93
2022/11/02 02:48:55;;;;;;;;;0.00;0.00;;;;;;;;4754537;29;26670;-92
2022/11/02 02:51:25;;;;;;;;;0.00;0.00;;;;;;;;4752457;30;41330;-93
2022/11/02 02:53:56;;;;;;;;;0.00;0.00;;;;;;;;4746092;30;38063;-94
2022/11/02 02:56:24;;;;;;;;;0.00;0.00;;;;;;;;4745374;30;45522;-93
2022/11/02 02:59:04;;;;;;;;;0.00;0.00;;;;;;;;4752595;30;32001;-92
2022/11/02 03:01:29;;;;;;;;;0.00;0.00;;;;;;;;4754213;29;38710;-93
2022/11/02 03:03:55;;;;;;;;;0.00;0.00;;;;;;;;4747368;30;28682;-94
2022/11/02 03:06:23;;;;;;;;;0.00;0.00;;;;;;;;4732065;30;28340;-93
2022/11/02 03:09:01;;;;;;;;;0.00;0.00;;;;;;;;4744813;30;30287;-93
2022/11/02 03:11:27;;;;;;;;;0.00;0.00;;;;;;;;4732203;30;28685;-93
2022/11/02 03:13:55;;;;;;;;;0.00;0.00;;;;;;;;4743073;30;44784;-94
2022/11/02 03:16:37;;;;;;;;;0.00;0.00;;;;;;;;4743399;30;42214;-93
2022/11/02 03:19:10;;;;;;;;;0.00;0.00;;;;;;;;4751824;30;28486;-93
2022/11/02 03:21:40;;;;;;;;;0.00;0.00;;;;;;;;4746910;30;28490;-93
2022/11/02 03:24:13;;;;;;;;;0.00;0.00;;;;;;;;4736716;30;42300;-92
2022/11/02 03:27:04;;;;;;;;;0.00;0.00;;;;;;;;4746566;30;28642;-93
2022/11/02 03:29:37;;;;;;;;;0.00;0.00;;;;;;;;4740417;30;30149;-91
2022/11/02 03:32:05;;;;;;;;;0.00;0.00;;;;;;;;4733441;30;29207;-95
2022/11/02 03:34:37;;;;;;;;;0.00;0.00;;;;;;;;4736864;30;45372;-93
2022/11/02 03:37:10;;;;;;;;;0.00;0.00;;;;;;;;4751834;30;37281;-93
2022/11/02 03:39:37;;;;;;;;;0.00;0.00;;;;;;;;4743492;30;31192;-93
2022/11/02 03:42:03;;;;;;;;;0.00;0.00;;;;;;;;4753635;29;45019;-93
2022/11/02 03:44:30;;;;;;;;;0.00;0.00;;;;;;;;4738117;30;43970;-93
2022/11/02 03:46:58;;;;;;;;;0.00;0.00;;;;;;;;4744704;30;27945;-93
2022/11/02 03:49:26;;;;;;;;;0.00;0.00;;;;;;;;4747506;30;27697;-93
2022/11/02 03:51:52;;;;;;;;;0.00;0.00;;;;;;;;4734573;30;28580;-94
2022/11/02 03:54:32;;;;;;;;;0.00;0.00;;;;;;;;4740372;30;28690;-94
2022/11/02 03:57:02;;;;;;;;;0.00;0.00;;;;;;;;4753048;30;39545;-93
2022/11/02 03:59:31;;;;;;;;;0.00;0.00;;;;;;;;4733824;30;30789;-94
2022/11/02 04:01:57;;;;;;;;;0.00;0.00;;;;;;;;4756376;30;44671;-94
2022/11/02 04:04:22;;;;;;;;;0.00;0.00;;;;;;;;4756942;30;43614;-93
2022/11/02 04:06:47;;;;;;;;;0.00;0.00;;;;;;;;4743149;29;45297;-93
2022/11/02 04:09:13;;;;;;;;;0.00;0.00;;;;;;;;4746342;30;48412;-93
2022/11/02 04:14:37;;;;;;;;;0.00;0.00;;;;;;;;4767552;29;44312;-93
2022/11/02 04:19:47;;;;;;;;;0.00;0.00;;;;;;;;4753912;29;44763;-92
2022/11/02 04:25:14;;;;;;;;;0.00;0.00;;;;;;;;4761643;29;41231;-93
2022/11/02 04:27:39;;;;;;;;;0.00;0.00;;;;;;;;4743810;29;44357;-92
2022/11/02 04:30:05;;;;;;;;;0.00;0.00;;;;;;;;4739268;29;45147;-93
2022/11/02 04:35:20;;;;;;;;;0.00;0.00;;;;;;;;4754970;29;44988;-93
2022/11/02 04:40:29;;;;;;;;;0.00;0.00;;;;;;;;4745619;29;45820;-92
2022/11/02 04:42:54;;;;;;;;;0.00;0.00;;;;;;;;4729536;30;45280;-93
2022/11/02 04:45:19;;;;;;;;;0.00;0.00;;;;;;;;4724031;29;45306;-93
2022/11/02 04:47:44;;;;;;;;;0.00;0.00;;;;;;;;4738458;29;45174;-92
2022/11/02 04:50:10;;;;;;;;;0.00;0.00;;;;;;;;4749478;29;45506;-92
2022/11/02 04:52:35;;;;;;;;;0.00;0.00;;;;;;;;4749243;29;44619;-92
2022/11/02 04:55:00;;;;;;;;;0.00;0.00;;;;;;;;4751850;29;40815;-93
2022/11/02 04:57:26;;;;;;;;;0.00;0.00;;;;;;;;4741366;30;45533;-92
2022/11/02 04:59:51;;;;;;;;;0.00;0.00;;;;;;;;4744384;29;44657;-93
2022/11/02 05:02:16;;;;;;;;;0.00;0.00;;;;;;;;4736501;29;44539;-92
2022/11/02 05:04:41;;;;;;;;;0.00;0.00;;;;;;;;4732145;30;44982;-93
2022/11/02 05:07:07;;;;;;;;;0.00;0.00;;;;;;;;4728118;29;45323;-92
2022/11/02 05:09:32;;;;;;;;;0.00;0.00;;;;;;;;4726009;30;47377;-92
2022/11/02 05:11:58;;;;;;;;;0.00;0.00;;;;;;;;4728554;29;45851;-93
2022/11/02 05:14:23;;;;;;;;;0.00;0.00;;;;;;;;4732390;30;45463;-92
2022/11/02 05:16:48;;;;;;;;;0.00;0.00;;;;;;;;4727762;29;45491;-92
2022/11/02 05:19:13;;;;;;;;;0.00;0.00;;;;;;;;4732861;29;45757;-93
2022/11/02 05:21:39;;;;;;;;;0.00;0.00;;;;;;;;4751172;29;45285;-92
2022/11/02 05:24:04;;;;;;;;;0.00;0.00;;;;;;;;4733866;30;45322;-93
2022/11/02 05:26:29;;;;;;;;;0.00;0.00;;;;;;;;4725457;30;45377;-93
2022/11/02 05:28:54;;;;;;;;;0.00;0.00;;;;;;;;4733323;30;48127;-92
2022/11/02 05:31:20;;;;;;;;;0.00;0.00;;;;;;;;4727974;30;45937;-92
2022/11/02 05:33:45;;;;;;;;;0.00;0.00;;;;;;;;4731491;29;45326;-93
2022/11/02 05:36:11;;;;;;;;;0.00;0.00;;;;;;;;4733923;30;45584;-91
2022/11/02 05:38:36;;;;;;;;;0.00;0.00;;;;;;;;4750980;29;47519;-92
2022/11/02 05:41:02;;;;;;;;;0.00;0.00;;;;;;;;4736869;29;45598;-92
2022/11/02 05:43:27;;;;;;;;;0.00;0.00;;;;;;;;4730102;29;45534;-93
2022/11/02 05:45:56;;;;;;;;;0.00;0.00;;;;;;;;4727428;29;45573;-93
2022/11/02 05:48:22;;;;;;;;;0.00;0.00;;;;;;;;4726688;29;47167;-91
2022/11/02 05:50:47;;;;;;;;;0.00;0.00;;;;;;;;4730859;29;45408;-94
2022/11/02 05:53:13;;;;;;;;;0.00;0.00;;;;;;;;4729823;29;45382;-91
2022/11/02 05:55:38;;;;;;;;;0.00;0.00;;;;;;;;4722867;30;45562;-93
2022/11/02 05:58:03;;;;;;;;;0.00;0.00;;;;;;;;4737633;29;46354;-93
2022/11/02 06:00:28;;;;;;;;;0.00;0.00;;;;;;;;4731568;29;45645;-93
2022/11/02 06:02:57;;;;;;;;;0.00;0.00;;;;;;;;4732554;30;45443;-92
2022/11/02 06:05:23;;;;;;;;;0.00;0.00;;;;;;;;4722809;29;45473;-93
2022/11/02 06:07:48;;;;;;;;;0.00;0.00;;;;;;;;4726548;29;45771;-92
2022/11/02 06:10:13;;;;;;;;;0.00;0.00;;;;;;;;4726464;29;45565;-93
2022/11/02 06:12:38;;;;;;;;;0.00;0.00;;;;;;;;4744505;29;45555;-92
2022/11/02 06:15:04;;;;;;;;;0.00;0.00;;;;;;;;4727249;29;45464;-94
2022/11/02 06:17:35;;;;;;;;;0.00;0.00;;;;;;;;4744315;29;45377;-93
2022/11/02 06:20:00;;;;;;;;;0.00;0.00;;;;;;;;4737411;29;45893;-92
2022/11/02 06:22:25;;;;;;;;;0.00;0.00;;;;;;;;4733525;30;45685;-92
2022/11/02 06:24:51;;;;;;;;;0.00;0.00;;;;;;;;4724862;30;45333;-93
2022/11/02 06:27:16;;;;;;;;;0.00;0.00;;;;;;;;4742873;29;46765;-93
2022/11/02 06:29:41;;;;;;;;;0.00;0.00;;;;;;;;4732977;30;45375;-92
2022/11/02 06:32:06;;;;;;;;;0.00;0.00;;;;;;;;4731949;29;45138;-92
2022/11/02 06:34:31;;;;;;;;;0.00;0.00;;;;;;;;4722597;30;45157;-90
2022/11/02 06:36:56;;;;;;;;;0.00;0.00;;;;;;;;4738907;29;47102;-91
2022/11/02 06:39:22;;;;;;;;;0.00;0.00;;;;;;;;4724681;30;45962;-92
2022/11/02 06:41:47;;;;;;;;;0.00;0.00;;;;;;;;4733531;29;45297;-93
2022/11/02 06:44:12;;;;;;;;;0.00;0.00;;;;;;;;4741620;29;45492;-93
2022/11/02 06:46:37;;;;;;;;;0.00;0.00;;;;;;;;4730671;29;46653;-93
2022/11/02 06:49:02;;;;;;;;;0.00;0.00;;;;;;;;4729179;30;44250;-92
2022/11/02 06:51:28;;;;;;;;;0.00;0.00;;;;;;;;4728646;30;45100;-92
2022/11/02 06:53:53;;;;;;;;;0.00;0.00;;;;;;;;4723251;30;45404;-92
2022/11/02 06:56:18;;;;;;;;;0.00;0.00;;;;;;;;4720473;30;47070;-92
2022/11/02 06:58:43;;;;;;;;;0.00;0.00;;;;;;;;4723870;29;45918;-91
2022/11/02 07:01:09;;;;;;;;;0.00;0.00;;;;;;;;4728381;30;45043;-93
2022/11/02 07:03:34;;;;;;;;;0.00;0.00;;;;;;;;4721977;29;45486;-93
2022/11/02 07:05:59;;;;;;;;;0.00;0.00;;;;;;;;4719889;30;47316;-92
2022/11/02 07:08:26;;;;;;;;;0.00;0.00;;;;;;;;4732956;29;45679;-93
2022/11/02 07:10:51;;;;;;;;;0.00;0.00;;;;;;;;4750293;29;46696;-93
2022/11/02 07:13:16;;;;;;;;;0.00;0.00;;;;;;;;4724406;29;45473;-93
2022/11/02 07:15:42;;;;;;;;;0.00;0.00;;;;;;;;4758091;29;48056;-92
2022/11/02 07:18:07;;;;;;;;;0.00;0.00;;;;;;;;4762208;29;45401;-93
2022/11/02 07:20:32;;;;;;;;;0.00;0.00;;;;;;;;4732432;29;45406;-93
2022/11/02 07:22:59;;;;;;;;;0.00;0.00;;;;;;;;4736419;29;45366;-93
2022/11/02 07:25:26;;;;;;;;;0.00;0.00;;;;;;;;4736854;29;46694;-93
2022/11/02 07:27:51;;;;;;;;;0.00;0.00;;;;;;;;4780541;29;40409;-92
2022/11/02 07:30:16;;;;;;;;;0.00;0.00;;;;;;;;4761692;29;28603;-93
2022/11/02 07:32:42;;;;;;;;;0.00;0.00;;;;;;;;4766250;29;9021;-92
2022/11/02 07:35:08;;;;;;;;;0.00;0.00;;;;;;;;4761725;29;9910;-92
2022/11/02 07:37:34;;;;;;;;;0.00;0.00;;;;;;;;4751316;29;45261;-87
2022/11/02 07:39:59;;;;;;;;;0.00;0.00;;;;;;;;4768736;29;8907;-87
2022/11/02 07:42:24;;;;;;;;;0.00;0.00;;;;;;;;4745427;30;45493;-89
2022/11/02 07:44:49;;;;;;;;;0.00;0.00;;;;;;;;4739783;29;45528;-88
2022/11/02 07:47:14;;;;;;;;;0.00;0.00;;;;;;;;4739463;29;45437;-87
2022/11/02 07:49:39;;;;;;;;;0.00;0.00;;;;;;;;4737284;29;45531;-88
2022/11/02 07:52:05;;;;;;;;;0.00;0.00;;;;;;;;4760123;29;44652;-88
2022/11/02 07:54:30;;;;;;;;;0.00;0.00;;;;;;;;4743880;29;45396;-88
2022/11/02 07:56:55;;;;;;;;;0.00;0.00;;;;;;;;4729100;29;45471;-89
2022/11/02 07:59:21;;;;;;;;;0.00;0.00;;;;;;;;4735094;29;45291;-88
2022/11/02 08:01:46;;;;;;;;;0.00;0.00;;;;;;;;4736953;29;45533;-88
2022/11/02 08:04:11;;;;;;;;;0.00;0.00;;;;;;;;4734509;29;46735;-90
2022/11/02 08:06:36;;;;;;;;;0.00;0.00;;;;;;;;4725729;29;45416;-86
2022/11/02 08:09:02;;;;;;;;;0.00;0.00;;;;;;;;4746531;29;45419;-90
2022/11/02 08:11:27;;;;;;;;;0.00;0.00;;;;;;;;4722729;29;45668;-87
2022/11/02 08:13:52;;;;;;;;;0.00;0.00;;;;;;;;4736961;29;46001;-87
2022/11/02 08:16:17;;;;;;;;;0.00;0.00;;;;;;;;4749266;29;45419;-88
2022/11/02 08:18:42;;;;;;;;;0.00;0.00;;;;;;;;4747385;29;45400;-86
2022/11/02 08:21:08;;;;;;;;;0.00;0.00;;;;;;;;4740964;29;45455;-88
2022/11/02 08:23:33;;;;;;;;;0.00;0.00;;;;;;;;4733702;29;47882;-88
2022/11/02 08:25:59;;;;;;;;;0.00;0.00;;;;;;;;4744405;29;45356;-90
2022/11/02 08:28:25;;;;;;;;;0.00;0.00;;;;;;;;4752392;29;45326;-93
2022/11/02 08:30:51;;;;;;;;;0.00;0.00;;;;;;;;4736424;29;45314;-93
2022/11/02 08:33:17;;;;;;;;;0.00;0.00;;;;;;;;4754216;29;46780;-92
2022/11/02 08:35:43;;;;;;;;;0.00;0.00;;;;;;;;4718658;30;45698;-90
2022/11/02 08:38:08;;;;;;;;;0.00;0.00;;;;;;;;4728876;29;45460;-90
2022/11/02 08:40:34;;;;;;;;;0.00;0.00;;;;;;;;4742126;29;45425;-90
2022/11/02 08:43:01;;;;;;;;;0.00;0.00;;;;;;;;4745052;29;46351;-90
2022/11/02 08:45:26;;;;;;;;;0.00;0.00;;;;;;;;4722280;29;45698;-90
2022/11/02 08:47:52;;;;;;;;;0.00;0.00;;;;;;;;4744913;29;45468;-90
2022/11/02 08:50:17;;;;;;;;;0.00;0.00;;;;;;;;4722719;29;45404;-88
2022/11/02 08:52:42;;;;;;;;;0.00;0.00;;;;;;;;4728931;29;47128;-89
2022/11/02 08:55:07;;;;;;;;;0.00;0.00;;;;;;;;4748407;29;45320;-87
2022/11/02 08:57:42;;;;;;;;;0.00;0.00;;;;;;;;4766445;29;28599;-88
2022/11/02 09:00:08;;;;;;;;;0.00;0.00;;;;;;;;4725736;29;45916;-90
2022/11/02 09:02:33;;;;;;;;;0.00;0.00;;;;;;;;4734641;29;48427;-87
2022/11/02 09:04:58;;;;;;;;;0.00;0.00;;;;;;;;4749018;29;45741;-88
2022/11/02 09:07:23;;;;;;;;;0.00;0.00;;;;;;;;4726641;29;45693;-88
2022/11/02 09:09:48;;;;;;;;;0.00;0.00;;;;;;;;4744902;29;45725;-88
2022/11/02 09:12:14;;;;;;;;;0.00;0.00;;;;;;;;4764232;29;45227;-88
2022/11/02 09:14:39;;;;;;;;;0.00;0.00;;;;;;;;4756318;29;28456;-88
2022/11/02 09:17:04;;;;;;;;;0.00;0.00;;;;;;;;4765442;29;45459;-89
2022/11/02 09:19:29;;;;;;;;;0.00;0.00;;;;;;;;4733953;29;45331;-88
2022/11/02 09:21:54;;;;;;;;;0.00;0.00;;;;;;;;4727686;29;47047;-88
2022/11/02 09:24:20;;;;;;;;;0.00;0.00;;;;;;;;4730120;29;45692;-88
2022/11/02 09:26:47;;;;;;;;;0.00;0.00;;;;;;;;4750575;29;46069;-88
2022/11/02 09:29:12;;;;;;;;;0.00;0.00;;;;;;;;4722982;29;45605;-89
2022/11/02 09:31:37;;;;;;;;;0.00;0.00;;;;;;;;4745886;29;45518;-88
2022/11/02 09:34:02;;;;;;;;;0.00;0.00;;;;;;;;4733505;29;45930;-88
2022/11/02 09:36:27;;;;;;;;;0.00;0.00;;;;;;;;4755928;29;45323;-88
2022/11/02 09:38:53;;;;;;;;;0.00;0.00;;;;;;;;4748022;29;45565;-88
2022/11/02 09:41:32;;;;;;;;;0.00;0.00;;;;;;;;4746672;29;45667;-89
2022/11/02 09:44:00;;;;;;;;;0.00;0.00;;;;;;;;4735707;29;45421;-88
2022/11/02 09:46:29;;;;;;;;;0.00;0.00;;;;;;;;4742661;29;45626;-88
2022/11/02 09:48:57;;;;;;;;;0.00;0.00;;;;;;;;4749937;29;45477;-88
2022/11/02 09:51:27;;;;;;;;;0.00;0.00;;;;;;;;4738328;29;45270;-88
2022/11/02 09:53:57;;;;;;;;;0.00;0.00;;;;;;;;4744247;29;45731;-89
2022/11/02 09:56:23;;;;;;;;;0.00;0.00;;;;;;;;4745565;29;45411;-89
2022/11/02 09:58:52;;;;;;;;;0.00;0.00;;;;;;;;4740002;29;45427;-90
2022/11/02 10:01:23;;;;;;;;;0.00;0.00;;;;;;;;4750298;29;45489;-89
2022/11/02 10:03:55;;;;;;;;;0.00;0.00;;;;;;;;4737082;29;45443;-89
2022/11/02 10:06:21;;;;;;;;;0.00;0.00;;;;;;;;4735772;29;45397;-90
2022/11/02 10:09:05;;;;;;;;;0.00;0.00;;;;;;;;4742293;29;45540;-89
2022/11/02 10:11:46;;;;;;;;;0.00;0.00;;;;;;;;4748538;29;46410;-91
2022/11/02 10:14:11;;;;;;;;;0.00;0.00;;;;;;;;4742453;29;45549;-91
2022/11/02 10:16:44;;;;;;;;;0.00;0.00;;;;;;;;4753679;29;45633;-89
2022/11/02 10:19:12;;;;;;;;;0.00;0.00;;;;;;;;4731715;29;45880;-90
2022/11/02 10:21:38;;;;;;;;;0.00;0.00;;;;;;;;4747511;29;46323;-89
2022/11/02 10:24:26;;;;;;;;;0.00;0.00;;;;;;;;4747341;29;45564;-90
2022/11/02 10:26:54;;;;;;;;;0.00;0.00;;;;;;;;4731144;29;46405;-89
2022/11/02 10:29:26;;;;;;;;;0.00;0.00;;;;;;;;4724547;29;45612;-89
2022/11/02 10:31:51;;;;;;;;;0.00;0.00;;;;;;;;4734917;29;47399;-90
2022/11/02 10:34:26;;;;;;;;;0.00;0.00;;;;;;;;4726100;29;46066;-91
2022/11/02 10:37:07;;;;;;;;;0.00;0.00;;;;;;;;4751396;29;45794;-90
2022/11/02 10:39:39;;;;;;;;;0.00;0.00;;;;;;;;4732227;30;45390;-90
2022/11/02 10:42:23;;;;;;;;;0.00;0.00;;;;;;;;4720810;29;47161;-90
2022/11/02 10:45:14;;;;;;;;;0.00;0.00;;;;;;;;4723236;29;45369;-90
2022/11/02 10:47:43;;;;;;;;;0.00;0.00;;;;;;;;4726043;30;45915;-89
2022/11/02 10:50:20;;;;;;;;;0.00;0.00;;;;;;;;4733409;29;45696;-91
2022/11/02 10:52:46;;;;;;;;;0.00;0.00;;;;;;;;4734507;29;47409;-92
2022/11/02 10:55:25;;;;;;;;;0.00;0.00;;;;;;;;4740600;29;45719;-89
2022/11/02 10:57:52;;;;;;;;;0.00;0.00;;;;;;;;4743003;29;45431;-89
2022/11/02 11:00:24;;;;;;;;;0.00;0.00;;;;;;;;4730237;29;45781;-88
2022/11/02 11:03:09;;;;;;;;;0.00;0.00;;;;;;;;4755575;29;46732;-94
2022/11/02 11:05:37;;;;;;;;;0.00;0.00;;;;;;;;4727827;30;45542;-90
2022/11/02 11:08:03;;;;;;;;;0.00;0.00;;;;;;;;4722744;30;45477;-88
2022/11/02 11:10:30;;;;;;;;;0.00;0.00;;;;;;;;4728569;30;45506;-90
2022/11/02 11:12:56;;;;;;;;;0.00;0.00;;;;;;;;4742911;29;45358;-89
2022/11/02 11:15:23;;;;;;;;;0.00;0.00;;;;;;;;4752007;30;8950;-89
2022/11/02 11:17:49;;;;;;;;;0.00;0.00;;;;;;;;4751078;30;8857;-89
2022/11/02 11:20:32;;;;;;;;;0.00;0.00;;;;;;;;4757527;30;11710;-91
2022/11/02 11:23:06;;;;;;;;;0.00;0.00;;;;;;;;4742706;29;45398;-90
2022/11/02 11:25:31;;;;;;;;;0.00;0.00;;;;;;;;4749582;30;45486;-88
2022/11/02 11:27:58;;;;;;;;;0.00;0.00;;;;;;;;4733138;30;45291;-91
2022/11/02 11:30:23;;;;;;;;;0.00;0.00;;;;;;;;4760252;29;8871;-92
2022/11/02 11:32:48;;;;;;;;;0.00;0.00;;;;;;;;4751186;30;12479;-87
2022/11/02 11:35:16;;;;;;;;;0.00;0.00;;;;;;;;4746085;30;45519;-87
2022/11/02 11:37:49;;;;;;;;;0.00;0.00;;;;;;;;4719616;30;45474;-90
2022/11/02 11:40:20;;;;;;;;;0.00;0.00;;;;;;;;4716107;30;45498;-91
2022/11/02 11:42:47;;;;;;;;;0.00;0.00;;;;;;;;4723227;30;47801;-89
2022/11/02 11:45:16;;;;;;;;;0.00;0.00;;;;;;;;4726866;30;46142;-87
2022/11/02 11:47:42;;;;;;;;;0.00;0.00;;;;;;;;4727263;30;45594;-91
2022/11/02 11:50:14;;;;;;;;;0.00;0.00;;;;;;;;4728927;29;45472;-89
2022/11/02 11:52:40;;;;;;;;;0.00;0.00;;;;;;;;4739319;30;45295;-90
2022/11/02 11:55:19;;;;;;;;;0.00;0.00;;;;;;;;4720432;29;45624;-90
2022/11/02 11:57:45;;;;;;;;;0.00;0.00;;;;;;;;4726071;30;45787;-91
2022/11/02 12:00:26;;;;;;;;;0.00;0.00;;;;;;;;4729824;30;45868;-93
2022/11/02 12:03:05;;;;;;;;;0.00;0.00;;;;;;;;4736317;30;45429;-94
2022/11/02 12:05:35;;;;;;;;;0.00;0.00;;;;;;;;4729257;30;45507;-94
2022/11/02 12:08:27;;;;;;;;;0.00;0.00;;;;;;;;4732103;30;45446;-92
2022/11/02 12:11:18;;;;;;;;;0.00;0.00;;;;;;;;4724700;30;45400;-92
2022/11/02 12:13:43;;;;;;;;;0.00;0.00;;;;;;;;4724517;30;46880;-93
2022/11/02 12:16:28;;;;;;;;;0.00;0.00;;;;;;;;4730261;30;45589;-94
2022/11/02 12:18:53;;;;;;;;;0.00;0.00;;;;;;;;4720373;30;45429;-88
2022/11/02 12:21:25;;;;;;;;;0.00;0.00;;;;;;;;4736282;30;45560;-90
2022/11/02 12:24:02;;;;;;;;;0.00;0.00;;;;;;;;4761056;30;17629;-90
2022/11/02 12:26:36;;;;;;;;;0.00;0.00;;;;;;;;4726118;30;45505;-90
2022/11/02 12:29:17;;;;;;;;;0.00;0.00;;;;;;;;4719690;30;45503;-91
2022/11/02 12:31:52;;;;;;;;;0.00;0.00;;;;;;;;4741900;30;45404;-92
2022/11/02 12:34:29;;;;;;;;;0.00;0.00;;;;;;;;4758046;30;44823;-93
2022/11/02 12:36:54;;;;;;;;;0.00;0.00;;;;;;;;4751008;30;45678;-92
2022/11/02 12:39:29;;;;;;;;;0.00;0.00;;;;;;;;4744624;30;45483;-94
2022/11/02 12:42:13;;;;;;;;;0.00;0.00;;;;;;;;4726109;30;45607;-94
2022/11/02 12:44:53;;;;;;;;;0.00;0.00;;;;;;;;4727356;30;46505;-92
2022/11/02 12:47:21;;;;;;;;;0.00;0.00;;;;;;;;4744509;30;45522;-92
2022/11/02 12:49:46;;;;;;;;;0.00;0.00;;;;;;;;4730829;30;45399;-94
2022/11/02 12:52:30;;;;;;;;;0.00;0.00;;;;;;;;4727431;30;45503;-93
2022/11/02 12:54:58;;;;;;;;;0.00;0.00;;;;;;;;4747511;30;47033;-93
2022/11/02 12:57:24;;;;;;;;;0.00;0.00;;;;;;;;4764752;30;8877;-93
2022/11/02 12:59:53;;;;;;;;;0.00;0.00;;;;;;;;4761091;30;15388;-94
2022/11/02 13:02:18;;;;;;;;;0.00;0.00;;;;;;;;4765710;30;11684;-95
2022/11/02 13:04:57;;;;;;;;;0.00;0.00;;;;;;;;4755928;30;12576;-95
2022/11/02 13:07:35;;;;;;;;;0.00;0.00;;;;;;;;4731696;30;45481;-91
2022/11/02 13:10:00;;;;;;;;;0.00;0.00;;;;;;;;4720009;30;45491;-95
2022/11/02 13:12:26;;;;;;;;;0.00;0.00;;;;;;;;4732243;30;45444;-92
2022/11/02 13:14:53;;;;;;;;;0.00;0.00;;;;;;;;4733955;30;45688;-93
2022/11/02 13:17:25;;;;;;;;;0.00;0.00;;;;;;;;4720933;30;45468;-91
2022/11/02 13:19:53;;;;;;;;;0.00;0.00;;;;;;;;4724801;30;45510;-93
2022/11/02 13:22:19;;;;;;;;;0.00;0.00;;;;;;;;4731802;30;45983;-92
2022/11/02 13:24:46;;;;;;;;;0.00;0.00;;;;;;;;4732219;30;47243;-91
2022/11/02 13:27:24;;;;;;;;;0.00;0.00;;;;;;;;4724320;30;45510;-92
2022/11/02 13:29:51;;;;;;;;;0.00;0.00;;;;;;;;4718953;30;45462;-92
2022/11/02 13:32:21;;;;;;;;;0.00;0.00;;;;;;;;4732349;30;45427;-92
2022/11/02 13:34:48;;;;;;;;;0.00;0.00;;;;;;;;4735596;29;45505;-90
2022/11/02 13:37:17;;;;;;;;;0.00;0.00;;;;;;;;4730379;30;45601;-91
2022/11/02 13:39:46;;;;;;;;;0.00;0.00;;;;;;;;4724346;30;45196;-92
2022/11/02 13:42:11;;;;;;;;;0.00;0.00;;;;;;;;4719472;30;45410;-93
2022/11/02 13:44:36;;;;;;;;;0.00;0.00;;;;;;;;4721434;30;48203;-91
2022/11/02 13:47:07;;;;;;;;;0.00;0.00;;;;;;;;4730397;30;44811;-92
2022/11/02 13:49:44;;;;;;;;;0.00;0.00;;;;;;;;4730607;30;45004;-91
2022/11/02 13:52:11;;;;;;;;;0.00;0.00;;;;;;;;4721134;30;45178;-91
2022/11/02 13:54:39;;;;;;;;;0.00;0.00;;;;;;;;4737710;24;46864;-92
2022/11/02 13:57:05;;;;;;;;;0.00;0.00;;;;;;;;4724771;30;45523;-91
2022/11/02 13:59:37;;;;;;;;;18.00;18.00;;;;;;;;4731959;30;45051;-90
2022/11/02 14:02:04;;;;;;;;;0.00;0.00;;;;;;;;4743296;30;45680;-91
2022/11/02 14:04:36;;;;;;;;;0.00;0.00;;;;;;;;4733910;30;48297;-92
2022/11/02 14:07:03;;;;;;;;;0.00;0.00;;;;;;;;4730777;30;45650;-92
2022/11/02 14:09:38;;;;;;;;;0.00;0.00;;;;;;;;4737980;30;45436;-91
2022/11/02 14:12:16;;;;;;;;;0.00;0.00;;;;;;;;4732886;30;45316;-92
2022/11/02 14:14:41;;;;;;;;;0.00;0.00;;;;;;;;4720797;30;45451;-96
2022/11/02 14:17:18;;;;;;;;;0.00;0.00;;;;;;;;4731196;30;46085;-95
2022/11/02 14:19:47;;;;;;;;;0.00;0.00;;;;;;;;4730261;30;45411;-93
2022/11/02 14:22:16;;;;;;;;;0.00;0.00;;;;;;;;4767833;30;8855;-93
2022/11/02 14:24:41;;;;;;;;;0.00;0.00;;;;;;;;4755888;30;11692;-94
2022/11/02 14:27:12;;;;;;;;;0.00;0.00;;;;;;;;4754067;30;11718;-96
2022/11/02 14:29:41;;;;;;;;;0.00;0.00;;;;;;;;4729974;30;45479;-94
2022/11/02 14:32:15;;;;;;;;;0.00;0.00;;;;;;;;4720200;30;45534;-93
2022/11/02 14:34:50;;;;;;;;;0.00;0.00;;;;;;;;4726323;30;48447;-94
2022/11/02 14:37:28;;;;;;;;;0.00;0.00;;;;;;;;4753307;30;45124;-95
2022/11/02 14:39:59;;;;;;;;;0.00;0.00;;;;;;;;4759802;30;8885;-95
2022/11/02 14:42:27;;;;;;;;;0.00;0.00;;;;;;;;4750677;30;44685;-95
2022/11/02 14:45:11;;;;;;;;;0.00;0.00;;;;;;;;4730152;30;48500;-93
2022/11/02 14:47:37;;;;;;;;;0.00;0.00;;;;;;;;4755732;30;42840;-93
2022/11/02 14:50:17;;;;;;;;;0.00;0.00;;;;;;;;4757150;30;11684;-96
2022/11/02 14:52:55;;;;;;;;;0.00;0.00;;;;;;;;4748889;30;44768;-96
2022/11/02 14:55:28;;;;;;;;;0.00;0.00;;;;;;;;4745523;30;47138;-94
2022/11/02 14:57:59;;;;;;;;;0.00;0.00;;;;;;;;4765936;30;44820;-95
2022/11/02 15:00:36;;;;;;;;;0.00;0.00;;;;;;;;4735916;30;45343;-96
2022/11/02 15:03:03;;;;;;;;;0.00;0.00;;;;;;;;4732054;30;45492;-96
2022/11/02 15:05:32;;;;;;;;;0.00;0.00;;;;;;;;4724468;30;47434;-95